Time;durP1;ratioP1;P1;durP2;ratioP2;P2;SDS_P1;SDS_P2;PMS_P1;PMS_P2;Temp;Humidity;BMP_temperature;BMP_pressure;BME280_temperature;BME280_humidity;BME280_pressure;Samples;Min_cycle;Max_cycle;Signal;HPM_P1;HPM_P2
2022/03/04 00:01:17;;;;;;;21.57;13.63;;;1.30;66.90;;;;;;5028484;28;20204;-89
2022/03/04 00:03:43;;;;;;;19.53;13.73;;;1.30;66.70;;;;;;5024410;28;20164;-88
2022/03/04 00:06:09;;;;;;;19.13;14.17;;;1.20;66.70;;;;;;5008080;28;20241;-89
2022/03/04 00:08:35;;;;;;;20.33;13.37;;;1.20;67.00;;;;;;5025956;28;20541;-90
2022/03/04 00:11:02;;;;;;;19.77;13.80;;;1.20;67.00;;;;;;5036335;28;20221;-87
2022/03/04 00:13:30;;;;;;;19.60;14.50;;;1.10;67.00;;;;;;5026109;28;20237;-88
2022/03/04 00:15:58;;;;;;;19.27;13.77;;;1.00;67.30;;;;;;5042772;28;20169;-86
2022/03/04 00:18:25;;;;;;;19.37;13.57;;;1.10;67.20;;;;;;5041810;28;20178;-87
2022/03/04 00:20:51;;;;;;;21.07;13.67;;;1.00;67.60;;;;;;5042947;28;20198;-88
2022/03/04 00:23:20;;;;;;;21.00;13.07;;;1.10;68.20;;;;;;5039262;28;20537;-90
2022/03/04 00:25:46;;;;;;;20.80;13.70;;;1.20;68.20;;;;;;5039920;28;20175;-88
2022/03/04 00:28:12;;;;;;;21.23;13.50;;;1.20;67.80;;;;;;5035888;28;20197;-85
2022/03/04 00:30:38;;;;;;;20.20;12.90;;;1.20;67.90;;;;;;5035569;28;20173;-86
2022/03/04 00:33:04;;;;;;;18.00;13.30;;;1.20;68.20;;;;;;5033890;28;20425;-88
2022/03/04 00:35:29;;;;;;;19.20;13.13;;;1.10;68.30;;;;;;5035581;28;20179;-88
2022/03/04 00:37:55;;;;;;;22.97;13.57;;;1.20;68.40;;;;;;5034377;28;20165;-91
2022/03/04 00:40:21;;;;;;;19.13;13.23;;;1.10;68.10;;;;;;5034323;28;20212;-90
2022/03/04 00:42:47;;;;;;;17.63;12.47;;;1.00;68.40;;;;;;5034865;28;20675;-87
2022/03/04 00:45:13;;;;;;;20.93;14.47;;;1.00;68.20;;;;;;5036364;28;20175;-89
2022/03/04 00:47:38;;;;;;;20.57;13.50;;;0.90;68.40;;;;;;5039586;28;20194;-87
2022/03/04 00:50:06;;;;;;;20.33;12.93;;;1.00;68.50;;;;;;5017013;28;20181;-85
2022/03/04 00:52:31;;;;;;;21.23;14.10;;;0.90;68.40;;;;;;5036446;28;20166;-86
2022/03/04 00:54:58;;;;;;;17.73;12.80;;;0.90;68.70;;;;;;5039062;28;20209;-86
2022/03/04 00:57:23;;;;;;;21.43;13.93;;;0.80;68.70;;;;;;5040776;28;20224;-86
2022/03/04 00:59:49;;;;;;;20.73;13.53;;;0.90;69.00;;;;;;5023397;28;20222;-86
2022/03/04 01:02:15;;;;;;;20.50;13.97;;;0.80;69.00;;;;;;5046779;28;20175;-85
2022/03/04 01:04:40;;;;;;;19.03;12.33;;;0.90;69.20;;;;;;5024844;28;20230;-86
2022/03/04 01:07:06;;;;;;;18.40;13.37;;;1.00;68.90;;;;;;5037662;28;20274;-88
2022/03/04 01:09:32;;;;;;;16.93;12.77;;;1.00;68.90;;;;;;5038687;28;20181;-87
2022/03/04 01:11:58;;;;;;;18.73;13.47;;;1.00;69.10;;;;;;5036703;28;20256;-86
2022/03/04 01:14:24;;;;;;;17.90;12.40;;;0.90;69.20;;;;;;5043664;28;20180;-92
2022/03/04 01:16:50;;;;;;;17.27;13.47;;;0.90;69.20;;;;;;5038045;28;20171;-94
2022/03/04 01:19:16;;;;;;;17.00;12.87;;;0.80;69.60;;;;;;5020222;28;20184;-93
2022/03/04 01:21:42;;;;;;;16.37;12.50;;;0.80;70.00;;;;;;5037409;28;20196;-92
2022/03/04 01:24:08;;;;;;;19.60;12.33;;;0.80;69.60;;;;;;5038527;28;20548;-89
2022/03/04 01:26:34;;;;;;;19.67;13.87;;;0.80;69.80;;;;;;5021159;28;20186;-87
2022/03/04 01:29:00;;;;;;;19.50;13.57;;;0.70;70.10;;;;;;5019419;28;20634;-85
2022/03/04 01:31:26;;;;;;;26.37;13.60;;;0.60;69.50;;;;;;5036927;28;20209;-86
2022/03/04 01:33:52;;;;;;;17.47;12.93;;;0.50;69.50;;;;;;5044954;28;20178;-92
2022/03/04 01:36:17;;;;;;;19.10;13.53;;;0.50;69.30;;;;;;5044266;28;20173;-93
2022/03/04 01:38:44;;;;;;;25.73;13.03;;;0.50;69.10;;;;;;5041378;28;20180;-89
2022/03/04 01:41:10;;;;;;;21.03;12.77;;;0.30;69.20;;;;;;5019901;28;20248;-87
2022/03/04 01:43:36;;;;;;;16.80;12.77;;;0.20;69.60;;;;;;5036435;28;20521;-85
2022/03/04 01:46:29;;;;;;;17.63;12.53;;;0.10;69.80;;;;;;5018343;28;20185;-86
2022/03/04 01:48:55;;;;;;;18.73;12.30;;;0.10;70.00;;;;;;5032842;28;20558;-85
2022/03/04 01:51:21;;;;;;;18.40;12.80;;;0.00;69.60;;;;;;5035507;28;20162;-85
2022/03/04 01:53:47;;;;;;;19.53;11.47;;;0.00;69.80;;;;;;5017915;28;20226;-86
2022/03/04 01:56:13;;;;;;;17.13;11.73;;;0.00;69.80;;;;;;5035835;28;20210;-91
2022/03/04 01:58:39;;;;;;;18.23;12.30;;;-0.10;69.80;;;;;;5019160;28;20188;-90
2022/03/04 02:01:05;;;;;;;16.33;11.70;;;-0.10;70.00;;;;;;5036892;28;20211;-85
2022/03/04 02:03:31;;;;;;;18.40;11.87;;;0.00;70.00;;;;;;5019597;28;20216;-90
2022/03/04 02:05:56;;;;;;;18.27;12.40;;;0.00;70.10;;;;;;5037612;28;20264;-94
2022/03/04 02:08:22;;;;;;;17.97;12.30;;;0.00;69.80;;;;;;5037533;28;20183;-94
2022/03/04 02:10:48;;;;;;;18.50;12.17;;;-0.10;69.80;;;;;;5019232;28;20231;-87
2022/03/04 02:13:15;;;;;;;17.20;11.57;;;0.00;70.00;;;;;;5036541;28;20184;-87
2022/03/04 02:15:45;;;;;;;16.30;12.23;;;0.00;69.70;;;;;;5019511;28;20177;-88
2022/03/04 02:18:13;;;;;;;18.47;11.83;;;0.10;69.50;;;;;;5020909;28;20177;-91
2022/03/04 02:20:43;;;;;;;19.67;13.13;;;0.10;69.80;;;;;;5037365;28;20652;-88
2022/03/04 02:23:12;;;;;;;16.03;12.13;;;0.10;70.00;;;;;;5019147;28;20203;-91
2022/03/04 02:25:39;;;;;;;16.87;12.33;;;0.10;70.10;;;;;;5019121;28;20175;-93
2022/03/04 02:28:05;;;;;;;18.13;13.90;;;0.00;70.30;;;;;;5018886;28;20185;-93
2022/03/04 02:30:31;;;;;;;16.57;12.43;;;-0.10;70.70;;;;;;5019244;28;20647;-89
2022/03/04 02:32:56;;;;;;;16.40;12.53;;;-0.30;70.70;;;;;;5037476;28;20684;-92
2022/03/04 02:35:22;;;;;;;18.20;12.83;;;-0.30;71.10;;;;;;5035625;28;20191;-87
2022/03/04 02:37:48;;;;;;;16.37;12.13;;;-0.20;71.10;;;;;;5035524;28;20188;-89
2022/03/04 02:40:14;;;;;;;17.67;11.83;;;-0.20;70.90;;;;;;5037517;28;20204;-90
2022/03/04 02:42:39;;;;;;;17.13;12.10;;;-0.30;71.10;;;;;;5053439;28;20183;-86
2022/03/04 02:45:06;;;;;;;19.83;12.70;;;-0.20;71.40;;;;;;5054228;28;20161;-86
2022/03/04 02:47:31;;;;;;;16.80;12.23;;;-0.10;71.00;;;;;;5050431;28;20507;-84
2022/03/04 02:49:57;;;;;;;16.33;12.07;;;-0.10;71.40;;;;;;5036219;28;20181;-84
2022/03/04 02:52:23;;;;;;;21.37;13.47;;;0.00;71.10;;;;;;5034235;28;20234;-84
2022/03/04 02:54:48;;;;;;;16.37;11.70;;;0.00;71.10;;;;;;5035405;28;20177;-91
2022/03/04 02:57:14;;;;;;;16.53;11.87;;;0.00;70.90;;;;;;5036602;28;20186;-92
2022/03/04 02:59:40;;;;;;;17.80;12.67;;;-0.10;70.70;;;;;;5039737;28;20200;-86
2022/03/04 03:02:06;;;;;;;20.87;12.80;;;-0.20;71.10;;;;;;5041720;28;20660;-88
2022/03/04 03:04:33;;;;;;;17.20;12.33;;;-0.10;71.20;;;;;;5049015;28;20265;-90
2022/03/04 03:06:59;;;;;;;19.70;12.43;;;-0.10;71.20;;;;;;5053366;28;20177;-86
2022/03/04 03:09:25;;;;;;;17.90;12.70;;;-0.10;71.20;;;;;;5037561;28;20260;-86
2022/03/04 03:11:50;;;;;;;18.13;12.67;;;-0.10;71.20;;;;;;5057663;28;20224;-86
2022/03/04 03:14:16;;;;;;;19.43;13.07;;;-0.30;71.60;;;;;;5054767;28;20219;-86
2022/03/04 03:16:42;;;;;;;16.50;12.17;;;-0.30;71.50;;;;;;5042527;28;20242;-85
2022/03/04 03:19:08;;;;;;;18.97;12.53;;;-0.40;71.50;;;;;;5024444;28;20181;-85
2022/03/04 03:21:34;;;;;;;19.30;12.47;;;-0.50;71.30;;;;;;5040255;28;20173;-92
2022/03/04 03:24:00;;;;;;;18.37;12.63;;;-0.60;71.50;;;;;;5019129;28;20176;-92
2022/03/04 03:26:25;;;;;;;19.70;12.67;;;-0.70;72.00;;;;;;5022566;28;20173;-93
2022/03/04 03:28:51;;;;;;;18.63;12.30;;;-0.70;72.30;;;;;;5017706;28;20610;-94
2022/03/04 03:31:19;;;;;;;19.17;12.53;;;-0.80;72.60;;;;;;5035562;28;20184;-88
2022/03/04 03:33:45;;;;;;;20.00;13.03;;;-0.80;72.10;;;;;;5034333;28;20183;-85
2022/03/04 03:36:11;;;;;;;18.90;13.17;;;-0.80;72.20;;;;;;5034841;28;20199;-90
2022/03/04 03:38:37;;;;;;;17.27;12.20;;;-0.70;72.20;;;;;;5034355;28;20183;-86
2022/03/04 03:41:03;;;;;;;20.17;12.63;;;-0.60;72.40;;;;;;5020618;28;20535;-92
2022/03/04 03:43:28;;;;;;;15.10;11.97;;;-0.70;72.50;;;;;;5014573;28;20260;-88
2022/03/04 03:45:54;;;;;;;14.37;11.60;;;-0.80;72.80;;;;;;5014237;28;20177;-89
2022/03/04 03:48:20;;;;;;;16.53;12.17;;;-0.70;72.80;;;;;;5014641;28;20230;-86
2022/03/04 03:50:46;;;;;;;14.63;11.53;;;-0.70;72.70;;;;;;5015215;28;20239;-87
2022/03/04 03:53:11;;;;;;;17.30;12.43;;;-0.60;72.40;;;;;;5015353;28;20184;-87
2022/03/04 03:55:37;;;;;;;18.50;12.57;;;-0.60;72.50;;;;;;5016827;28;20181;-85
2022/03/04 03:58:03;;;;;;;18.93;12.73;;;-0.60;72.20;;;;;;5016062;28;20669;-87
2022/03/04 04:00:29;;;;;;;18.90;12.13;;;-0.70;72.30;;;;;;5014976;28;20213;-90
2022/03/04 04:02:55;;;;;;;17.13;12.07;;;-0.70;72.50;;;;;;5014974;28;20177;-85
2022/03/04 04:05:21;;;;;;;18.37;12.27;;;-0.60;72.80;;;;;;5013176;28;20185;-88
2022/03/04 04:07:46;;;;;;;16.60;12.47;;;-0.60;72.20;;;;;;5013890;28;20212;-93
2022/03/04 04:10:12;;;;;;;16.57;12.23;;;-0.60;72.50;;;;;;5014515;28;20181;-94
2022/03/04 04:12:38;;;;;;;16.60;12.53;;;-0.60;72.50;;;;;;5017936;28;20201;-90
2022/03/04 04:15:04;;;;;;;15.70;11.77;;;-0.70;72.20;;;;;;5036170;28;20190;-91
2022/03/04 04:17:30;;;;;;;18.57;11.73;;;-0.60;72.30;;;;;;5037431;28;20178;-89
2022/03/04 04:19:56;;;;;;;16.53;12.03;;;-0.60;72.30;;;;;;5043732;28;20251;-87
2022/03/04 04:22:22;;;;;;;15.93;12.10;;;-0.70;72.30;;;;;;5050279;28;20165;-84
2022/03/04 04:24:47;;;;;;;20.90;12.47;;;-0.80;72.70;;;;;;5050361;28;20648;-85
2022/03/04 04:27:13;;;;;;;16.27;12.13;;;-0.80;72.50;;;;;;5051898;28;20200;-86
2022/03/04 04:29:39;;;;;;;16.53;11.53;;;-0.90;72.80;;;;;;5049901;28;20200;-85
2022/03/04 04:32:05;;;;;;;16.20;12.30;;;-0.90;72.90;;;;;;5026402;28;20184;-85
2022/03/04 04:34:30;;;;;;;16.77;12.67;;;-0.90;73.00;;;;;;5031274;28;20176;-85
2022/03/04 04:36:56;;;;;;;18.83;12.43;;;-0.90;73.20;;;;;;5052113;28;20304;-86
2022/03/04 04:39:22;;;;;;;19.97;11.97;;;-0.80;73.20;;;;;;5007294;28;20237;-88
2022/03/04 04:41:48;;;;;;;17.00;12.40;;;-0.80;73.10;;;;;;5039512;28;20172;-86
2022/03/04 04:44:14;;;;;;;17.97;12.37;;;-0.80;73.20;;;;;;5038096;28;20524;-90
2022/03/04 04:46:39;;;;;;;18.80;12.67;;;-0.80;73.70;;;;;;5004289;28;20258;-86
2022/03/04 04:49:05;;;;;;;17.60;12.10;;;-0.70;73.90;;;;;;5038285;28;20504;-91
2022/03/04 04:51:31;;;;;;;16.50;11.60;;;-0.70;73.40;;;;;;5021791;28;20168;-87
2022/03/04 04:53:56;;;;;;;17.83;12.43;;;-0.70;73.00;;;;;;5038517;28;20256;-90
2022/03/04 04:56:22;;;;;;;19.03;12.40;;;-0.80;73.00;;;;;;5037962;28;20200;-91
2022/03/04 04:58:48;;;;;;;15.67;11.93;;;-0.80;73.10;;;;;;5037462;28;20196;-89
2022/03/04 05:01:15;;;;;;;20.97;12.37;;;-1.00;73.60;;;;;;5037710;28;20204;-91
2022/03/04 05:03:41;;;;;;;20.50;13.53;;;-1.10;73.80;;;;;;5037448;28;20165;-88
2022/03/04 05:06:07;;;;;;;16.70;11.73;;;-1.10;73.80;;;;;;5020835;28;20224;-89
2022/03/04 05:08:33;;;;;;;17.47;12.00;;;-1.00;73.80;;;;;;5040696;28;20268;-89
2022/03/04 05:11:00;;;;;;;18.23;12.10;;;-0.90;74.00;;;;;;5046098;28;20561;-91
2022/03/04 05:13:26;;;;;;;17.57;11.70;;;-0.90;73.30;;;;;;5030636;28;20199;-88
2022/03/04 05:15:52;;;;;;;17.07;12.17;;;-1.00;73.40;;;;;;5026032;28;20505;-90
2022/03/04 05:18:17;;;;;;;19.37;12.30;;;-1.00;72.90;;;;;;5043021;28;20176;-91
2022/03/04 05:20:43;;;;;;;16.53;12.17;;;-0.90;72.70;;;;;;5039046;28;20201;-95
2022/03/04 05:23:09;;;;;;;16.70;11.70;;;-1.10;73.10;;;;;;5039636;28;20169;-93
2022/03/04 05:25:35;;;;;;;18.47;12.23;;;-1.10;73.40;;;;;;5037666;28;20172;-90
2022/03/04 05:28:01;;;;;;;18.10;11.53;;;-1.10;73.40;;;;;;5037465;28;20530;-92
2022/03/04 05:30:27;;;;;;;19.53;12.47;;;-1.10;73.60;;;;;;5036389;28;20187;-86
2022/03/04 05:32:52;;;;;;;17.90;12.03;;;-1.10;73.70;;;;;;5035769;28;20164;-91
2022/03/04 05:35:18;;;;;;;17.47;12.47;;;-1.10;73.70;;;;;;5036613;28;20592;-89
2022/03/04 05:37:44;;;;;;;19.90;12.10;;;-0.90;73.80;;;;;;5019244;28;20181;-90
2022/03/04 05:40:12;;;;;;;19.40;12.87;;;-0.80;73.30;;;;;;5036620;28;20208;-85
2022/03/04 05:42:38;;;;;;;16.80;11.67;;;-0.90;73.90;;;;;;5025946;28;20182;-85
2022/03/04 05:45:04;;;;;;;19.30;12.13;;;-0.90;74.50;;;;;;5024503;28;20275;-88
2022/03/04 05:47:30;;;;;;;19.67;12.73;;;-0.90;74.10;;;;;;5037296;28;20172;-85
2022/03/04 05:49:56;;;;;;;18.10;12.50;;;-0.80;74.10;;;;;;5037661;28;20181;-89
2022/03/04 05:52:22;;;;;;;34.37;12.43;;;-0.80;74.00;;;;;;5035801;28;20632;-86
2022/03/04 05:54:48;;;;;;;16.70;12.37;;;-0.90;74.20;;;;;;5018349;28;20203;-87
2022/03/04 05:57:14;;;;;;;23.17;13.57;;;-0.90;74.70;;;;;;5001796;28;20191;-86
2022/03/04 05:59:39;;;;;;;20.83;13.37;;;-0.90;74.70;;;;;;5018122;28;20660;-85
2022/03/04 06:02:05;;;;;;;19.87;12.30;;;-0.90;74.40;;;;;;5018169;28;20184;-86
2022/03/04 06:04:31;;;;;;;20.50;13.30;;;-1.00;74.20;;;;;;5036759;28;20196;-86
2022/03/04 06:06:57;;;;;;;23.13;14.27;;;-1.00;74.40;;;;;;5037044;28;20256;-87
2022/03/04 06:09:27;;;;;;;18.20;13.07;;;-1.00;74.60;;;;;;5023868;28;20218;-89
2022/03/04 06:11:53;;;;;;;22.97;14.00;;;-1.00;74.70;;;;;;5026743;28;20699;-87
2022/03/04 06:14:19;;;;;;;21.03;14.13;;;-1.00;74.60;;;;;;5050359;28;20251;-87
2022/03/04 06:16:45;;;;;;;18.33;13.43;;;-0.90;74.70;;;;;;5046140;28;20538;-91
2022/03/04 06:19:10;;;;;;;20.33;13.87;;;-1.00;75.00;;;;;;5021254;28;20280;-90
2022/03/04 06:21:36;;;;;;;19.93;13.53;;;-1.00;74.80;;;;;;5019108;28;20288;-92
2022/03/04 06:24:02;;;;;;;21.87;14.80;;;-0.90;74.90;;;;;;5036871;28;20176;-93
2022/03/04 06:26:28;;;;;;;25.57;13.50;;;-0.80;74.50;;;;;;5035789;28;20180;-90
2022/03/04 06:28:54;;;;;;;20.63;13.97;;;-0.80;74.30;;;;;;5018519;28;20184;-90
2022/03/04 06:31:20;;;;;;;24.07;13.80;;;-0.80;74.20;;;;;;5036009;28;20250;-88
2022/03/04 06:33:47;;;;;;;25.77;13.43;;;-0.80;74.40;;;;;;5035557;28;20196;-94
2022/03/04 06:36:13;;;;;;;22.27;14.97;;;-0.80;74.60;;;;;;5036739;28;20658;-92
2022/03/04 06:38:41;;;;;;;27.53;14.20;;;-0.70;74.70;;;;;;5019204;28;20176;-91
2022/03/04 06:41:09;;;;;;;21.80;14.07;;;-0.70;74.20;;;;;;5038111;28;20342;-93
2022/03/04 06:43:35;;;;;;;17.43;13.27;;;-0.70;73.70;;;;;;5037645;28;20165;-91
2022/03/04 06:46:04;;;;;;;26.60;14.63;;;-0.60;73.80;;;;;;5037617;28;20176;-90
2022/03/04 06:48:30;;;;;;;29.80;14.73;;;-0.50;73.50;;;;;;5019881;28;20176;-92
2022/03/04 06:50:57;;;;;;;22.77;15.47;;;-0.50;73.50;;;;;;5037183;28;20199;-91
2022/03/04 06:53:24;;;;;;;24.00;15.23;;;-0.50;73.40;;;;;;5036115;28;20172;-91
2022/03/04 06:55:52;;;;;;;27.03;15.63;;;-0.40;73.70;;;;;;5037132;28;20231;-89
2022/03/04 06:58:18;;;;;;;24.33;16.03;;;-0.40;73.90;;;;;;5036612;28;20248;-89
2022/03/04 07:00:44;;;;;;;20.10;14.43;;;-0.30;74.20;;;;;;5037144;28;20208;-95
2022/03/04 07:03:11;;;;;;;25.13;15.50;;;-0.40;74.10;;;;;;5037931;28;20176;-91
2022/03/04 07:05:38;;;;;;;22.60;15.17;;;-0.40;74.20;;;;;;5037869;28;20572;-92
2022/03/04 07:08:11;;;;;;;24.83;15.13;;;-0.30;74.50;;;;;;5037729;28;20173;-89
2022/03/04 07:10:42;;;;;;;21.57;14.93;;;-0.20;74.80;;;;;;5023056;28;20212;-91
2022/03/04 07:13:09;;;;;;;19.97;14.33;;;-0.10;73.70;;;;;;5021073;28;20177;-95
2022/03/04 07:15:36;;;;;;;23.73;14.70;;;-0.10;73.80;;;;;;5025204;28;20258;-94
2022/03/04 07:18:02;;;;;;;21.73;14.87;;;-0.10;73.60;;;;;;5021133;28;20231;-89
2022/03/04 07:20:28;;;;;;;23.47;14.83;;;0.00;73.50;;;;;;5035274;28;20200;-87
2022/03/04 07:22:54;;;;;;;22.13;14.97;;;0.10;73.40;;;;;;5020125;28;20587;-89
2022/03/04 07:25:20;;;;;;;19.20;13.70;;;0.20;73.10;;;;;;5019008;28;20177;-89
2022/03/04 07:27:46;;;;;;;21.73;14.53;;;0.20;73.10;;;;;;5020854;28;20176;-91
2022/03/04 07:30:14;;;;;;;20.20;14.40;;;0.40;75.80;;;;;;5035818;28;20622;-90
2022/03/04 07:32:41;;;;;;;25.93;14.97;;;0.60;75.10;;;;;;5017504;28;20180;-90
2022/03/04 07:35:08;;;;;;;22.57;14.30;;;0.80;73.50;;;;;;5018779;28;20184;-88
2022/03/04 07:37:38;;;;;;;22.60;14.70;;;0.80;72.20;;;;;;5036752;28;20199;-87
2022/03/04 07:40:06;;;;;;;22.17;13.97;;;0.90;72.10;;;;;;5037578;28;20197;-90
2022/03/04 07:42:32;;;;;;;20.17;12.97;;;1.00;72.70;;;;;;5035400;28;20264;-87
2022/03/04 07:44:58;;;;;;;23.93;15.53;;;1.20;81.20;;;;;;5017767;28;20185;-86
2022/03/04 07:47:24;;;;;;;22.20;14.03;;;1.60;77.80;;;;;;5017384;28;20185;-87
2022/03/04 07:49:50;;;;;;;25.90;14.73;;;1.90;73.40;;;;;;5018288;28;20182;-87
2022/03/04 07:52:15;;;;;;;27.67;15.73;;;1.90;71.40;;;;;;5017335;28;20531;-87
2022/03/04 07:54:41;;;;;;;21.97;14.50;;;2.00;73.00;;;;;;5036849;28;20230;-87
2022/03/04 07:57:07;;;;;;;24.70;16.13;;;2.00;76.30;;;;;;5041684;28;20237;-87
2022/03/04 07:59:33;;;;;;;25.60;14.57;;;2.10;76.70;;;;;;5028332;28;20184;-86
2022/03/04 08:01:59;;;;;;;23.00;15.37;;;2.30;75.90;;;;;;5042740;28;20179;-89
2022/03/04 08:04:25;;;;;;;23.77;15.60;;;2.40;71.60;;;;;;5019898;28;20189;-89
2022/03/04 08:06:51;;;;;;;22.67;14.63;;;2.50;74.00;;;;;;5036958;28;20175;-87
2022/03/04 08:09:16;;;;;;;20.33;14.03;;;2.60;72.40;;;;;;5017980;28;20526;-87
2022/03/04 08:11:44;;;;;;;19.23;13.80;;;2.70;71.60;;;;;;5035987;28;20645;-88
2022/03/04 08:14:10;;;;;;;23.37;14.50;;;2.90;72.60;;;;;;5048282;28;20195;-90
2022/03/04 08:16:36;;;;;;;21.73;13.13;;;3.10;69.10;;;;;;5052394;28;20207;-87
2022/03/04 08:19:03;;;;;;;21.77;13.63;;;3.20;72.20;;;;;;5043187;28;20175;-88
2022/03/04 08:21:29;;;;;;;22.10;14.07;;;3.40;71.60;;;;;;5044101;28;20211;-86
2022/03/04 08:23:55;;;;;;;19.40;13.53;;;3.60;69.70;;;;;;5022685;28;20190;-86
2022/03/04 08:26:21;;;;;;;21.20;13.43;;;3.70;68.20;;;;;;5042055;28;20183;-87
2022/03/04 08:28:47;;;;;;;22.30;14.23;;;3.80;64.30;;;;;;5041255;28;20225;-90
2022/03/04 08:31:12;;;;;;;19.77;13.83;;;3.80;66.50;;;;;;5019688;28;20195;-92
2022/03/04 08:33:41;;;;;;;19.30;13.50;;;3.80;64.30;;;;;;5019484;28;20218;-93
2022/03/04 08:36:07;;;;;;;17.70;13.27;;;3.60;64.60;;;;;;5037323;28;20230;-91
2022/03/04 08:38:33;;;;;;;18.50;12.33;;;3.60;64.00;;;;;;5038894;28;20169;-90
2022/03/04 08:40:59;;;;;;;20.80;12.93;;;3.60;63.30;;;;;;5042571;28;20212;-90
2022/03/04 08:43:25;;;;;;;16.80;11.00;;;3.60;64.40;;;;;;5019397;28;20179;-89
2022/03/04 08:45:51;;;;;;;18.33;11.50;;;3.60;63.30;;;;;;5035304;28;20168;-87
2022/03/04 08:48:17;;;;;;;13.20;10.43;;;3.60;64.30;;;;;;5018709;28;20258;-89
2022/03/04 08:50:43;;;;;;;15.40;9.67;;;3.70;62.50;;;;;;5036128;28;20171;-87
2022/03/04 08:53:08;;;;;;;13.43;10.33;;;3.80;61.90;;;;;;5035666;28;20176;-89
2022/03/04 08:55:34;;;;;;;17.30;10.03;;;3.90;60.00;;;;;;5019303;28;20212;-91
2022/03/04 08:58:00;;;;;;;12.57;9.93;;;3.90;60.60;;;;;;5043962;28;20243;-89
2022/03/04 09:00:28;;;;;;;15.10;9.97;;;3.90;61.90;;;;;;5031369;28;20242;-92
2022/03/04 09:02:55;;;;;;;17.90;11.63;;;3.90;62.60;;;;;;5047652;28;20648;-90
2022/03/04 09:05:21;;;;;;;25.57;12.13;;;3.90;63.50;;;;;;5025469;28;20183;-94
2022/03/04 09:07:47;;;;;;;25.23;13.43;;;3.90;64.40;;;;;;5044513;28;20178;-92
2022/03/04 09:10:13;;;;;;;23.03;12.70;;;4.00;65.10;;;;;;5048596;28;20180;-90
2022/03/04 09:12:39;;;;;;;17.20;13.00;;;4.10;65.60;;;;;;5055071;28;20176;-88
2022/03/04 09:15:07;;;;;;;28.67;15.60;;;4.20;65.90;;;;;;5036741;28;20184;-88
2022/03/04 09:17:33;;;;;;;27.07;17.23;;;4.20;65.40;;;;;;5022092;28;20211;-87
2022/03/04 09:20:00;;;;;;;22.60;13.27;;;4.30;65.20;;;;;;5039538;28;20283;-88
2022/03/04 09:22:26;;;;;;;27.10;15.37;;;4.30;64.10;;;;;;5042019;28;20169;-94
2022/03/04 09:24:52;;;;;;;21.37;13.87;;;4.50;64.80;;;;;;5038786;28;20161;-93
2022/03/04 09:27:18;;;;;;;25.33;13.77;;;4.50;64.60;;;;;;5041917;28;20628;-91
2022/03/04 09:29:45;;;;;;;22.43;12.23;;;4.50;64.90;;;;;;5023717;28;20263;-90
2022/03/04 09:32:12;;;;;;;25.07;11.40;;;4.60;62.50;;;;;;5022308;28;20196;-88
2022/03/04 09:34:38;;;;;;;14.30;11.97;;;4.60;60.40;;;;;;5038380;28;20168;-89
2022/03/04 09:37:05;;;;;;;16.37;10.20;;;4.60;60.60;;;;;;5038619;28;20177;-86
2022/03/04 09:39:30;;;;;;;17.23;12.00;;;4.80;59.50;;;;;;5041463;28;20164;-87
2022/03/04 09:41:58;;;;;;;15.83;11.33;;;4.70;59.60;;;;;;5040756;28;20212;-85
2022/03/04 09:44:24;;;;;;;13.33;10.47;;;4.80;60.10;;;;;;5044420;28;20165;-84
2022/03/04 09:46:50;;;;;;;17.30;10.20;;;4.90;59.20;;;;;;5054112;28;20204;-86
2022/03/04 09:49:17;;;;;;;14.63;11.13;;;5.00;60.00;;;;;;5057743;28;20208;-91
2022/03/04 09:51:43;;;;;;;12.83;9.67;;;5.10;60.00;;;;;;5049638;28;20195;-88
2022/03/04 09:54:09;;;;;;;14.20;10.40;;;5.10;59.70;;;;;;5029717;28;20180;-92
2022/03/04 09:56:35;;;;;;;15.37;10.03;;;5.10;59.40;;;;;;5039081;28;20191;-89
2022/03/04 09:59:01;;;;;;;16.47;10.10;;;5.10;59.70;;;;;;5020741;28;20180;-92
2022/03/04 10:01:26;;;;;;;14.80;10.63;;;5.20;59.20;;;;;;5020583;28;20212;-90
2022/03/04 10:03:54;;;;;;;11.67;9.43;;;5.20;57.60;;;;;;5038565;28;20203;-87
2022/03/04 10:06:21;;;;;;;8.63;7.13;;;5.20;56.90;;;;;;5020057;28;20184;-87
2022/03/04 10:08:50;;;;;;;6.60;5.53;;;5.40;56.30;;;;;;5035935;28;20192;-87
2022/03/04 10:11:31;;;;;;;8.60;5.10;;;5.60;54.00;;;;;;5036794;28;20640;-93
2022/03/04 10:13:59;;;;;;;7.47;5.73;;;5.70;53.20;;;;;;5037501;28;20211;-86
2022/03/04 10:16:35;;;;;;;6.13;5.17;;;5.70;53.00;;;;;;5035919;28;20211;-86
2022/03/04 10:19:19;;;;;;;7.20;5.37;;;5.80;52.70;;;;;;5046860;28;20187;-87
2022/03/04 10:22:03;;;;;;;5.37;4.87;;;5.80;52.70;;;;;;5045377;28;20212;-90
2022/03/04 10:24:30;;;;;;;8.30;5.40;;;6.00;52.60;;;;;;5041189;28;20203;-90
2022/03/04 10:27:07;;;;;;;6.27;4.90;;;6.00;51.70;;;;;;5047065;28;20180;-86
2022/03/04 10:29:36;;;;;;;5.53;4.73;;;6.10;51.70;;;;;;5019619;28;20956;-85
2022/03/04 10:32:26;;;;;;;5.30;4.80;;;6.20;51.80;;;;;;5019677;28;20177;-87
2022/03/04 10:34:58;;;;;;;5.47;4.97;;;6.40;51.30;;;;;;5019011;28;20185;-86
2022/03/04 10:37:51;;;;;;;6.93;4.73;;;6.50;51.50;;;;;;5036415;28;20169;-88
2022/03/04 10:40:18;;;;;;;6.00;5.40;;;6.50;51.00;;;;;;5018278;28;20675;-88
2022/03/04 10:42:52;;;;;;;6.53;5.20;;;6.60;51.50;;;;;;5019909;28;20172;-91
2022/03/04 10:45:19;;;;;;;6.03;5.07;;;6.60;50.60;;;;;;5022355;28;20269;-92
2022/03/04 10:47:49;;;;;;;5.33;4.87;;;6.60;50.60;;;;;;5038175;28;20179;-86
2022/03/04 10:50:26;;;;;;;5.70;5.10;;;6.60;50.50;;;;;;5038417;28;20769;-89
2022/03/04 10:52:53;;;;;;;5.70;5.10;;;6.80;50.50;;;;;;5040468;28;20624;-90
2022/03/04 10:55:36;;;;;;;5.87;4.73;;;6.80;50.50;;;;;;5042800;28;20201;-89
2022/03/04 10:58:05;;;;;;;6.20;5.17;;;6.90;50.90;;;;;;5038486;28;20220;-90
2022/03/04 11:00:38;;;;;;;8.33;4.83;;;6.90;50.70;;;;;;5020591;28;20231;-90
2022/03/04 11:03:07;;;;;;;5.87;5.13;;;6.80;50.70;;;;;;5039261;28;20190;-93
2022/03/04 11:05:33;;;;;;;5.23;4.77;;;6.90;50.90;;;;;;5022400;28;20270;-91
2022/03/04 11:07:59;;;;;;;5.03;4.63;;;7.00;50.50;;;;;;5043169;28;20229;-90
2022/03/04 11:10:25;;;;;;;6.07;5.47;;;7.20;49.90;;;;;;5048838;28;20222;-88
2022/03/04 11:12:53;;;;;;;6.07;5.47;;;7.30;49.50;;;;;;5038301;28;20183;-86
2022/03/04 11:15:22;;;;;;;5.90;5.00;;;7.40;49.20;;;;;;5035299;28;20166;-88
2022/03/04 11:17:49;;;;;;;5.77;5.20;;;7.60;49.90;;;;;;5035442;28;20180;-86
2022/03/04 11:20:16;;;;;;;6.03;5.53;;;7.60;49.40;;;;;;5034590;28;20259;-87
2022/03/04 11:22:43;;;;;;;5.50;4.93;;;7.70;49.00;;;;;;5017172;28;20271;-85
2022/03/04 11:25:12;;;;;;;7.40;5.20;;;7.70;49.50;;;;;;5034518;28;20169;-86
2022/03/04 11:27:43;;;;;;;5.80;5.30;;;7.70;49.50;;;;;;5018236;28;20178;-89
2022/03/04 11:30:29;;;;;;;5.37;4.97;;;7.80;49.50;;;;;;5028134;28;20168;-85
2022/03/04 11:33:13;;;;;;;5.93;5.40;;;7.70;49.80;;;;;;5045650;28;20172;-91
2022/03/04 11:35:42;;;;;;;6.17;5.47;;;7.70;50.00;;;;;;5052780;28;20160;-88
2022/03/04 11:38:09;;;;;;;6.47;5.80;;;7.60;49.60;;;;;;5022841;28;20715;-87
2022/03/04 11:40:38;;;;;;;6.13;5.50;;;7.60;49.50;;;;;;5037183;28;20242;-91
2022/03/04 11:43:09;;;;;;;6.57;5.63;;;7.50;49.40;;;;;;5018471;28;20178;-89
2022/03/04 11:45:36;;;;;;;8.00;5.50;;;7.60;49.40;;;;;;5036013;28;20223;-89
2022/03/04 11:48:08;;;;;;;6.10;5.50;;;7.80;49.80;;;;;;5018913;28;20650;-90
2022/03/04 11:50:48;;;;;;;6.17;5.33;;;7.90;49.50;;;;;;5018702;28;20182;-88
2022/03/04 11:53:25;;;;;;;5.70;5.20;;;8.00;49.60;;;;;;5020822;28;20439;-87
2022/03/04 11:56:18;;;;;;;5.73;5.23;;;8.00;49.50;;;;;;5037802;28;20213;-89
2022/03/04 11:58:56;;;;;;;6.80;5.67;;;7.80;49.20;;;;;;5035336;28;20190;-87
2022/03/04 12:01:33;;;;;;;5.90;5.40;;;7.80;49.50;;;;;;5037768;28;20206;-88
2022/03/04 12:04:13;;;;;;;7.97;7.17;;;7.70;49.50;;;;;;5017250;28;20174;-86
2022/03/04 12:06:40;;;;;;;10.30;8.30;;;7.60;51.60;;;;;;5035117;28;20174;-89
2022/03/04 12:09:28;;;;;;;10.93;8.83;;;7.50;53.10;;;;;;5023014;28;20182;-86
2022/03/04 12:12:18;;;;;;;9.90;8.87;;;7.50;53.80;;;;;;5009224;28;20266;-88
2022/03/04 12:14:52;;;;;;;15.23;10.73;;;7.50;54.20;;;;;;5015563;28;20162;-90
2022/03/04 12:17:19;;;;;;;14.67;11.83;;;7.50;55.00;;;;;;5015966;28;20233;-91
2022/03/04 12:19:45;;;;;;;16.47;12.37;;;7.40;55.60;;;;;;4998450;28;20189;-87
2022/03/04 12:22:12;;;;;;;17.37;12.93;;;7.30;56.30;;;;;;4997643;28;20183;-89
2022/03/04 12:24:38;;;;;;;15.77;12.90;;;7.50;56.70;;;;;;5014590;28;20174;-87
2022/03/04 12:27:05;;;;;;;16.17;12.47;;;7.50;56.90;;;;;;4997036;28;20191;-87
2022/03/04 12:29:50;;;;;;;16.57;13.20;;;7.40;57.00;;;;;;5000135;28;20186;-88
2022/03/04 12:32:26;;;;;;;15.43;12.33;;;7.40;57.10;;;;;;5016377;28;20684;-87
2022/03/04 12:34:52;;;;;;;16.27;12.90;;;7.50;57.40;;;;;;5014983;28;20228;-92
2022/03/04 12:37:18;;;;;;;16.03;12.00;;;7.40;57.50;;;;;;5015795;28;20175;-90